sensor_id;sensor_type;location;lat;lon;timestamp;temperature;humidity
29237;DHT22;16266;50.866;4.398;2023-04-01T00:01:30;10.20;99.90
29237;DHT22;16266;50.866;4.398;2023-04-01T00:03:56;10.20;99.90
29237;DHT22;16266;50.866;4.398;2023-04-01T00:06:22;10.20;99.90
29237;DHT22;16266;50.866;4.398;2023-04-01T00:08:48;10.20;99.90
29237;DHT22;16266;50.866;4.398;2023-04-01T00:11:14;10.20;99.90
29237;DHT22;16266;50.866;4.398;2023-04-01T00:13:41;10.20;99.90
29237;DHT22;16266;50.866;4.398;2023-04-01T00:16:07;10.20;99.90
29237;DHT22;16266;50.866;4.398;2023-04-01T00:18:34;10.20;99.90
29237;DHT22;16266;50.866;4.398;2023-04-01T00:20:59;10.10;99.90
29237;DHT22;16266;50.866;4.398;2023-04-01T00:23:25;10.20;99.90
29237;DHT22;16266;50.866;4.398;2023-04-01T00:25:51;10.20;99.90
29237;DHT22;16266;50.866;4.398;2023-04-01T00:28:19;10.20;99.90
29237;DHT22;16266;50.866;4.398;2023-04-01T00:30:45;10.20;99.90
29237;DHT22;16266;50.866;4.398;2023-04-01T00:33:11;10.20;99.90
29237;DHT22;16266;50.866;4.398;2023-04-01T00:35:37;10.30;99.90
29237;DHT22;16266;50.866;4.398;2023-04-01T00:38:03;10.20;99.90
29237;DHT22;16266;50.866;4.398;2023-04-01T00:40:32;10.20;99.90
29237;DHT22;16266;50.866;4.398;2023-04-01T00:42:58;10.20;99.90
29237;DHT22;16266;50.866;4.398;2023-04-01T00:45:32;10.20;99.90
29237;DHT22;16266;50.866;4.398;2023-04-01T00:48:01;10.20;99.90
29237;DHT22;16266;50.866;4.398;2023-04-01T00:50:28;10.20;99.90
29237;DHT22;16266;50.866;4.398;2023-04-01T00:52:56;10.20;99.90
29237;DHT22;16266;50.866;4.398;2023-04-01T00:55:23;10.20;99.90
29237;DHT22;16266;50.866;4.398;2023-04-01T00:57:50;10.20;99.90
29237;DHT22;16266;50.866;4.398;2023-04-01T01:00:18;10.20;99.90
29237;DHT22;16266;50.866;4.398;2023-04-01T01:02:45;10.20;99.90
29237;DHT22;16266;50.866;4.398;2023-04-01T01:05:14;10.30;99.90
29237;DHT22;16266;50.866;4.398;2023-04-01T01:08:07;10.30;99.90
29237;DHT22;16266;50.866;4.398;2023-04-01T01:10:39;10.20;99.90
29237;DHT22;16266;50.866;4.398;2023-04-01T01:13:11;10.20;99.90
29237;DHT22;16266;50.866;4.398;2023-04-01T01:15:44;10.20;99.90
29237;DHT22;16266;50.866;4.398;2023-04-01T01:19:16;10.20;99.90
29237;DHT22;16266;50.866;4.398;2023-04-01T01:27:00;10.20;99.90
29237;DHT22;16266;50.866;4.398;2023-04-01T01:35:34;10.20;99.90
29237;DHT22;16266;50.866;4.398;2023-04-01T01:38:03;10.30;99.90
29237;DHT22;16266;50.866;4.398;2023-04-01T01:40:31;10.30;99.90
29237;DHT22;16266;50.866;4.398;2023-04-01T01:43:00;10.30;99.90
29237;DHT22;16266;50.866;4.398;2023-04-01T01:45:29;10.20;99.90
29237;DHT22;16266;50.866;4.398;2023-04-01T01:47:56;10.20;99.90
29237;DHT22;16266;50.866;4.398;2023-04-01T01:50:23;10.30;99.90
29237;DHT22;16266;50.866;4.398;2023-04-01T01:52:49;10.30;99.90
29237;DHT22;16266;50.866;4.398;2023-04-01T01:55:36;10.40;99.90
29237;DHT22;16266;50.866;4.398;2023-04-01T02:00:58;10.40;99.90
29237;DHT22;16266;50.866;4.398;2023-04-01T02:03:25;10.40;99.90
29237;DHT22;16266;50.866;4.398;2023-04-01T02:05:53;10.40;99.90
29237;DHT22;16266;50.866;4.398;2023-04-01T02:08:25;10.30;99.90
29237;DHT22;16266;50.866;4.398;2023-04-01T02:11:06;10.30;99.90
29237;DHT22;16266;50.866;4.398;2023-04-01T02:13:52;10.30;99.90
29237;DHT22;16266;50.866;4.398;2023-04-01T02:18:55;10.30;99.90
29237;DHT22;16266;50.866;4.398;2023-04-01T02:21:26;10.30;99.90
29237;DHT22;16266;50.866;4.398;2023-04-01T02:23:53;10.20;99.90
29237;DHT22;16266;50.866;4.398;2023-04-01T02:26:21;10.20;99.90
29237;DHT22;16266;50.866;4.398;2023-04-01T02:28:49;10.10;99.90
29237;DHT22;16266;50.866;4.398;2023-04-01T02:31:16;10.10;99.90
29237;DHT22;16266;50.866;4.398;2023-04-01T02:33:42;10.20;99.90
29237;DHT22;16266;50.866;4.398;2023-04-01T02:36:12;10.10;99.90
29237;DHT22;16266;50.866;4.398;2023-04-01T02:38:38;10.10;99.90
29237;DHT22;16266;50.866;4.398;2023-04-01T02:41:05;10.00;99.90
29237;DHT22;16266;50.866;4.398;2023-04-01T02:43:32;10.00;99.90
29237;DHT22;16266;50.866;4.398;2023-04-01T02:45:57;10.00;99.90
29237;DHT22;16266;50.866;4.398;2023-04-01T02:48:23;10.10;99.90
29237;DHT22;16266;50.866;4.398;2023-04-01T02:50:49;10.00;99.90
29237;DHT22;16266;50.866;4.398;2023-04-01T02:53:15;10.00;99.90
29237;DHT22;16266;50.866;4.398;2023-04-01T02:55:41;10.00;99.90
29237;DHT22;16266;50.866;4.398;2023-04-01T02:58:07;10.10;99.90
29237;DHT22;16266;50.866;4.398;2023-04-01T03:00:33;10.10;99.90
29237;DHT22;16266;50.866;4.398;2023-04-01T03:02:59;10.10;99.90
29237;DHT22;16266;50.866;4.398;2023-04-01T03:05:25;10.20;99.90
29237;DHT22;16266;50.866;4.398;2023-04-01T03:07:51;10.20;99.90
29237;DHT22;16266;50.866;4.398;2023-04-01T03:10:16;10.20;99.90
29237;DHT22;16266;50.866;4.398;2023-04-01T03:12:42;10.20;99.90
29237;DHT22;16266;50.866;4.398;2023-04-01T03:15:11;10.10;99.90
29237;DHT22;16266;50.866;4.398;2023-04-01T03:17:37;10.10;99.90
29237;DHT22;16266;50.866;4.398;2023-04-01T03:20:03;10.10;99.90
29237;DHT22;16266;50.866;4.398;2023-04-01T03:22:30;10.00;99.90
29237;DHT22;16266;50.866;4.398;2023-04-01T03:24:56;10.10;99.90
29237;DHT22;16266;50.866;4.398;2023-04-01T03:27:22;10.10;99.90
29237;DHT22;16266;50.866;4.398;2023-04-01T03:29:48;10.10;99.90
29237;DHT22;16266;50.866;4.398;2023-04-01T03:32:14;10.00;99.90
29237;DHT22;16266;50.866;4.398;2023-04-01T03:34:40;10.00;99.90
29237;DHT22;16266;50.866;4.398;2023-04-01T03:37:05;10.00;99.90
29237;DHT22;16266;50.866;4.398;2023-04-01T03:39:31;10.00;99.90
29237;DHT22;16266;50.866;4.398;2023-04-01T03:41:57;10.00;99.90
29237;DHT22;16266;50.866;4.398;2023-04-01T03:44:22;10.00;99.90
29237;DHT22;16266;50.866;4.398;2023-04-01T03:46:48;10.00;99.90
29237;DHT22;16266;50.866;4.398;2023-04-01T03:49:14;10.10;99.90
29237;DHT22;16266;50.866;4.398;2023-04-01T03:51:43;10.00;99.90
29237;DHT22;16266;50.866;4.398;2023-04-01T03:54:09;10.10;99.90
29237;DHT22;16266;50.866;4.398;2023-04-01T03:56:36;10.10;99.90
29237;DHT22;16266;50.866;4.398;2023-04-01T03:59:04;10.10;99.90
29237;DHT22;16266;50.866;4.398;2023-04-01T04:01:30;10.10;99.90
29237;DHT22;16266;50.866;4.398;2023-04-01T04:03:56;10.10;99.90
29237;DHT22;16266;50.866;4.398;2023-04-01T04:06:22;10.10;99.90
29237;DHT22;16266;50.866;4.398;2023-04-01T04:08:48;10.10;99.90
29237;DHT22;16266;50.866;4.398;2023-04-01T04:11:14;10.10;99.90
29237;DHT22;16266;50.866;4.398;2023-04-01T04:13:40;10.10;99.90
29237;DHT22;16266;50.866;4.398;2023-04-01T04:16:07;10.10;99.90
29237;DHT22;16266;50.866;4.398;2023-04-01T04:18:33;10.10;99.90
29237;DHT22;16266;50.866;4.398;2023-04-01T04:20:58;10.00;99.90
29237;DHT22;16266;50.866;4.398;2023-04-01T04:23:24;10.10;99.90
29237;DHT22;16266;50.866;4.398;2023-04-01T04:26:03;10.10;99.90
29237;DHT22;16266;50.866;4.398;2023-04-01T04:28:29;10.10;99.90
29237;DHT22;16266;50.866;4.398;2023-04-01T04:30:55;10.10;99.90
29237;DHT22;16266;50.866;4.398;2023-04-01T04:33:22;10.10;99.90
29237;DHT22;16266;50.866;4.398;2023-04-01T04:35:48;10.10;99.90
29237;DHT22;16266;50.866;4.398;2023-04-01T04:38:14;10.10;99.90
29237;DHT22;16266;50.866;4.398;2023-04-01T04:40:41;10.10;99.90
29237;DHT22;16266;50.866;4.398;2023-04-01T04:43:11;10.00;99.90
29237;DHT22;16266;50.866;4.398;2023-04-01T04:45:36;10.00;99.90
29237;DHT22;16266;50.866;4.398;2023-04-01T04:48:02;10.00;99.90
29237;DHT22;16266;50.866;4.398;2023-04-01T04:50:28;10.00;99.90
29237;DHT22;16266;50.866;4.398;2023-04-01T04:52:53;10.00;99.90
29237;DHT22;16266;50.866;4.398;2023-04-01T04:55:20;10.10;99.90
29237;DHT22;16266;50.866;4.398;2023-04-01T04:57:45;10.10;99.90
29237;DHT22;16266;50.866;4.398;2023-04-01T05:00:11;10.10;99.90
29237;DHT22;16266;50.866;4.398;2023-04-01T05:02:37;10.10;99.90
29237;DHT22;16266;50.866;4.398;2023-04-01T05:05:03;10.00;99.90
29237;DHT22;16266;50.866;4.398;2023-04-01T05:07:29;10.10;99.90
29237;DHT22;16266;50.866;4.398;2023-04-01T05:09:55;10.10;99.90
29237;DHT22;16266;50.866;4.398;2023-04-01T05:12:21;10.00;99.90
29237;DHT22;16266;50.866;4.398;2023-04-01T05:14:46;10.00;99.90
29237;DHT22;16266;50.866;4.398;2023-04-01T05:17:13;10.10;99.90
29237;DHT22;16266;50.866;4.398;2023-04-01T05:19:39;10.00;99.90
29237;DHT22;16266;50.866;4.398;2023-04-01T05:22:05;10.10;99.90
29237;DHT22;16266;50.866;4.398;2023-04-01T05:24:32;10.20;99.90
29237;DHT22;16266;50.866;4.398;2023-04-01T05:26:58;10.20;99.90
29237;DHT22;16266;50.866;4.398;2023-04-01T05:29:25;10.20;99.90
29237;DHT22;16266;50.866;4.398;2023-04-01T05:31:51;10.20;99.90
29237;DHT22;16266;50.866;4.398;2023-04-01T05:34:17;10.10;99.90
29237;DHT22;16266;50.866;4.398;2023-04-01T05:36:43;10.00;99.90
29237;DHT22;16266;50.866;4.398;2023-04-01T05:39:10;10.00;99.90
29237;DHT22;16266;50.866;4.398;2023-04-01T05:41:36;10.00;99.90
29237;DHT22;16266;50.866;4.398;2023-04-01T05:44:02;10.00;99.90
29237;DHT22;16266;50.866;4.398;2023-04-01T05:46:28;10.00;99.90
29237;DHT22;16266;50.866;4.398;2023-04-01T05:48:54;10.00;99.90
29237;DHT22;16266;50.866;4.398;2023-04-01T05:51:20;10.10;99.90
29237;DHT22;16266;50.866;4.398;2023-04-01T05:53:46;10.00;99.90
29237;DHT22;16266;50.866;4.398;2023-04-01T05:56:12;10.10;99.90
29237;DHT22;16266;50.866;4.398;2023-04-01T05:58:38;10.10;99.90
29237;DHT22;16266;50.866;4.398;2023-04-01T06:01:07;10.10;99.90
29237;DHT22;16266;50.866;4.398;2023-04-01T06:03:33;10.20;99.90
29237;DHT22;16266;50.866;4.398;2023-04-01T06:05:59;10.10;99.90
29237;DHT22;16266;50.866;4.398;2023-04-01T06:08:26;10.00;99.90
29237;DHT22;16266;50.866;4.398;2023-04-01T06:11:19;10.00;99.90
29237;DHT22;16266;50.866;4.398;2023-04-01T06:22:46;10.10;99.90
29237;DHT22;16266;50.866;4.398;2023-04-01T06:33:43;10.10;99.90
29237;DHT22;16266;50.866;4.398;2023-04-01T06:36:24;10.10;99.90
29237;DHT22;16266;50.866;4.398;2023-04-01T06:44:42;10.30;99.90
29237;DHT22;16266;50.866;4.398;2023-04-01T06:50:30;10.30;99.90
29237;DHT22;16266;50.866;4.398;2023-04-01T06:56:07;10.30;99.90
29237;DHT22;16266;50.866;4.398;2023-04-01T06:59:05;10.30;99.90
29237;DHT22;16266;50.866;4.398;2023-04-01T07:01:40;10.40;99.90
29237;DHT22;16266;50.866;4.398;2023-04-01T07:07:23;10.30;99.90
29237;DHT22;16266;50.866;4.398;2023-04-01T07:09:55;10.30;99.90
29237;DHT22;16266;50.866;4.398;2023-04-01T07:15:24;10.30;99.90
29237;DHT22;16266;50.866;4.398;2023-04-01T07:17:58;10.40;99.90
29237;DHT22;16266;50.866;4.398;2023-04-01T07:20:30;10.40;99.90
29237;DHT22;16266;50.866;4.398;2023-04-01T07:22:59;10.40;99.90
29237;DHT22;16266;50.866;4.398;2023-04-01T07:25:38;10.40;99.90
29237;DHT22;16266;50.866;4.398;2023-04-01T07:28:10;10.50;99.90
29237;DHT22;16266;50.866;4.398;2023-04-01T07:33:41;10.50;99.90
29237;DHT22;16266;50.866;4.398;2023-04-01T07:41:37;10.60;99.90
29237;DHT22;16266;50.866;4.398;2023-04-01T07:44:21;10.70;99.90
29237;DHT22;16266;50.866;4.398;2023-04-01T07:46:59;10.60;99.90
29237;DHT22;16266;50.866;4.398;2023-04-01T07:55:44;10.90;99.90
29237;DHT22;16266;50.866;4.398;2023-04-01T07:58:14;10.90;99.90
29237;DHT22;16266;50.866;4.398;2023-04-01T08:00:47;11.00;99.90
29237;DHT22;16266;50.866;4.398;2023-04-01T08:06:15;11.20;99.90
29237;DHT22;16266;50.866;4.398;2023-04-01T08:11:31;11.10;99.90
29237;DHT22;16266;50.866;4.398;2023-04-01T08:22:33;11.10;99.90
29237;DHT22;16266;50.866;4.398;2023-04-01T08:25:02;11.20;99.90
29237;DHT22;16266;50.866;4.398;2023-04-01T08:27:57;11.30;99.90
29237;DHT22;16266;50.866;4.398;2023-04-01T08:30:28;11.20;99.90
29237;DHT22;16266;50.866;4.398;2023-04-01T08:33:15;11.20;99.90
29237;DHT22;16266;50.866;4.398;2023-04-01T08:36:05;11.20;99.90
29237;DHT22;16266;50.866;4.398;2023-04-01T08:38:57;11.20;99.90
29237;DHT22;16266;50.866;4.398;2023-04-01T08:44:38;11.10;99.90
29237;DHT22;16266;50.866;4.398;2023-04-01T08:50:19;11.10;99.90
29237;DHT22;16266;50.866;4.398;2023-04-01T08:53:03;11.30;99.90
29237;DHT22;16266;50.866;4.398;2023-04-01T08:56:25;11.40;99.90
29237;DHT22;16266;50.866;4.398;2023-04-01T08:58:55;11.40;99.90
29237;DHT22;16266;50.866;4.398;2023-04-01T09:20:55;11.50;99.90
29237;DHT22;16266;50.866;4.398;2023-04-01T09:29:12;11.40;99.90
29237;DHT22;16266;50.866;4.398;2023-04-01T09:34:38;11.60;99.90
29237;DHT22;16266;50.866;4.398;2023-04-01T09:43:27;11.60;99.90
29237;DHT22;16266;50.866;4.398;2023-04-01T09:46:20;11.60;99.90
29237;DHT22;16266;50.866;4.398;2023-04-01T10:11:46;12.20;99.90
29237;DHT22;16266;50.866;4.398;2023-04-01T10:14:25;12.30;99.90
29237;DHT22;16266;50.866;4.398;2023-04-01T10:20:28;11.90;99.90
29237;DHT22;16266;50.866;4.398;2023-04-01T10:39:17;12.10;99.90
29237;DHT22;16266;50.866;4.398;2023-04-01T10:56:29;12.80;99.90
29237;DHT22;16266;50.866;4.398;2023-04-01T11:07:22;12.90;99.90
29237;DHT22;16266;50.866;4.398;2023-04-01T11:10:29;13.10;99.90
29237;DHT22;16266;50.866;4.398;2023-04-01T11:15:58;13.20;99.90
29237;DHT22;16266;50.866;4.398;2023-04-01T11:21:49;13.20;99.90
29237;DHT22;16266;50.866;4.398;2023-04-01T11:30:20;12.80;99.90
29237;DHT22;16266;50.866;4.398;2023-04-01T11:33:01;12.90;99.90
29237;DHT22;16266;50.866;4.398;2023-04-01T11:38:35;12.50;99.90
29237;DHT22;16266;50.866;4.398;2023-04-01T11:46:20;12.90;99.90
29237;DHT22;16266;50.866;4.398;2023-04-01T11:51:50;12.90;99.90
29237;DHT22;16266;50.866;4.398;2023-04-01T12:08:39;13.20;99.90
29237;DHT22;16266;50.866;4.398;2023-04-01T12:11:29;13.00;99.90
29237;DHT22;16266;50.866;4.398;2023-04-01T12:17:10;12.80;99.90
29237;DHT22;16266;50.866;4.398;2023-04-01T12:31:12;12.80;99.90
29237;DHT22;16266;50.866;4.398;2023-04-01T12:42:55;11.60;99.90
29237;DHT22;16266;50.866;4.398;2023-04-01T12:48:37;11.80;99.90
29237;DHT22;16266;50.866;4.398;2023-04-01T12:51:33;11.90;99.90
29237;DHT22;16266;50.866;4.398;2023-04-01T13:11:34;12.20;99.90
29237;DHT22;16266;50.866;4.398;2023-04-01T13:17:09;12.20;99.90
29237;DHT22;16266;50.866;4.398;2023-04-01T13:22:24;12.40;99.90
29237;DHT22;16266;50.866;4.398;2023-04-01T13:25:09;12.20;99.90
29237;DHT22;16266;50.866;4.398;2023-04-01T13:27:54;12.10;99.90
29237;DHT22;16266;50.866;4.398;2023-04-01T13:30:33;12.20;99.90
29237;DHT22;16266;50.866;4.398;2023-04-01T13:33:11;12.10;99.90
29237;DHT22;16266;50.866;4.398;2023-04-01T13:44:00;12.10;99.90
29237;DHT22;16266;50.866;4.398;2023-04-01T13:52:07;12.30;99.90
29237;DHT22;16266;50.866;4.398;2023-04-01T13:55:05;12.30;99.90
29237;DHT22;16266;50.866;4.398;2023-04-01T13:57:48;12.40;99.90
29237;DHT22;16266;50.866;4.398;2023-04-01T14:05:54;12.30;99.90
29237;DHT22;16266;50.866;4.398;2023-04-01T14:16:47;12.10;99.90
29237;DHT22;16266;50.866;4.398;2023-04-01T14:36:45;12.40;99.90
29237;DHT22;16266;50.866;4.398;2023-04-01T14:48:32;12.20;99.90
29237;DHT22;16266;50.866;4.398;2023-04-01T14:51:23;12.20;99.90
29237;DHT22;16266;50.866;4.398;2023-04-01T14:54:16;12.20;99.90
29237;DHT22;16266;50.866;4.398;2023-04-01T14:56:50;12.20;99.90
29237;DHT22;16266;50.866;4.398;2023-04-01T15:02:08;12.20;99.90
29237;DHT22;16266;50.866;4.398;2023-04-01T15:05:04;12.40;99.90
29237;DHT22;16266;50.866;4.398;2023-04-01T15:08:00;12.40;99.90
29237;DHT22;16266;50.866;4.398;2023-04-01T15:10:49;12.20;99.90
29237;DHT22;16266;50.866;4.398;2023-04-01T15:16:18;12.00;99.90
29237;DHT22;16266;50.866;4.398;2023-04-01T15:19:12;11.80;99.90
29237;DHT22;16266;50.866;4.398;2023-04-01T15:21:50;11.80;99.90
29237;DHT22;16266;50.866;4.398;2023-04-01T15:37:58;11.80;99.90
29237;DHT22;16266;50.866;4.398;2023-04-01T16:00:43;10.60;99.90
29237;DHT22;16266;50.866;4.398;2023-04-01T16:09:06;10.60;99.90
29237;DHT22;16266;50.866;4.398;2023-04-01T16:22:38;10.50;99.90
29237;DHT22;16266;50.866;4.398;2023-04-01T16:30:55;10.40;99.90
29237;DHT22;16266;50.866;4.398;2023-04-01T16:33:47;10.40;99.90
29237;DHT22;16266;50.866;4.398;2023-04-01T16:41:52;10.40;99.90
29237;DHT22;16266;50.866;4.398;2023-04-01T16:44:26;10.50;99.90
29237;DHT22;16266;50.866;4.398;2023-04-01T16:46:57;10.60;99.90
29237;DHT22;16266;50.866;4.398;2023-04-01T16:49:25;10.50;99.90
29237;DHT22;16266;50.866;4.398;2023-04-01T16:51:57;10.50;99.90
29237;DHT22;16266;50.866;4.398;2023-04-01T16:54:53;10.40;99.90
29237;DHT22;16266;50.866;4.398;2023-04-01T16:57:26;10.50;99.90
29237;DHT22;16266;50.866;4.398;2023-04-01T17:02:25;10.40;99.90
29237;DHT22;16266;50.866;4.398;2023-04-01T17:05:01;10.40;99.90
29237;DHT22;16266;50.866;4.398;2023-04-01T17:07:43;10.40;99.90
29237;DHT22;16266;50.866;4.398;2023-04-01T17:13:10;10.30;99.90
29237;DHT22;16266;50.866;4.398;2023-04-01T17:18:34;10.40;99.90
29237;DHT22;16266;50.866;4.398;2023-04-01T17:24:27;10.30;99.90
29237;DHT22;16266;50.866;4.398;2023-04-01T17:30:24;10.40;99.90
29237;DHT22;16266;50.866;4.398;2023-04-01T17:49:35;10.30;99.90
29237;DHT22;16266;50.866;4.398;2023-04-01T17:57:51;10.30;99.90
29237;DHT22;16266;50.866;4.398;2023-04-01T18:05:49;10.30;99.90
29237;DHT22;16266;50.866;4.398;2023-04-01T18:08:32;10.30;99.90
29237;DHT22;16266;50.866;4.398;2023-04-01T18:19:20;10.20;99.90
29237;DHT22;16266;50.866;4.398;2023-04-01T18:21:55;10.20;99.90
29237;DHT22;16266;50.866;4.398;2023-04-01T18:27:42;10.10;99.90
29237;DHT22;16266;50.866;4.398;2023-04-01T18:30:28;10.00;99.90
29237;DHT22;16266;50.866;4.398;2023-04-01T18:33:03;10.00;99.90
29237;DHT22;16266;50.866;4.398;2023-04-01T18:38:16;10.10;99.90
29237;DHT22;16266;50.866;4.398;2023-04-01T18:40:51;10.10;99.90
29237;DHT22;16266;50.866;4.398;2023-04-01T18:47:03;10.10;99.90
29237;DHT22;16266;50.866;4.398;2023-04-01T18:52:33;10.20;99.90
29237;DHT22;16266;50.866;4.398;2023-04-01T18:57:42;10.20;99.90
29237;DHT22;16266;50.866;4.398;2023-04-01T19:00:25;10.00;99.90
29237;DHT22;16266;50.866;4.398;2023-04-01T19:05:39;10.00;99.90
29237;DHT22;16266;50.866;4.398;2023-04-01T19:08:26;9.90;99.90
29237;DHT22;16266;50.866;4.398;2023-04-01T19:22:02;9.90;99.90
29237;DHT22;16266;50.866;4.398;2023-04-01T19:27:35;9.90;99.90
29237;DHT22;16266;50.866;4.398;2023-04-01T19:32:43;9.80;99.90
29237;DHT22;16266;50.866;4.398;2023-04-01T19:38:27;9.80;99.90
29237;DHT22;16266;50.866;4.398;2023-04-01T19:41:20;9.80;99.90
29237;DHT22;16266;50.866;4.398;2023-04-01T19:43:54;9.80;99.90
29237;DHT22;16266;50.866;4.398;2023-04-01T19:46:51;9.80;99.90
29237;DHT22;16266;50.866;4.398;2023-04-01T19:52:17;9.80;99.90
29237;DHT22;16266;50.866;4.398;2023-04-01T20:13:57;9.90;99.90
29237;DHT22;16266;50.866;4.398;2023-04-01T20:20:00;9.90;99.90
29237;DHT22;16266;50.866;4.398;2023-04-01T20:22:51;9.90;99.90
29237;DHT22;16266;50.866;4.398;2023-04-01T20:25:21;10.00;99.90
29237;DHT22;16266;50.866;4.398;2023-04-01T20:36:26;9.80;99.90
29237;DHT22;16266;50.866;4.398;2023-04-01T20:42:10;9.90;99.90
29237;DHT22;16266;50.866;4.398;2023-04-01T20:53:28;9.80;99.90
29237;DHT22;16266;50.866;4.398;2023-04-01T21:04:17;9.90;99.90
29237;DHT22;16266;50.866;4.398;2023-04-01T21:17:34;10.00;99.90
29237;DHT22;16266;50.866;4.398;2023-04-01T21:20:38;9.90;99.90
29237;DHT22;16266;50.866;4.398;2023-04-01T21:23:23;9.90;99.90
29237;DHT22;16266;50.866;4.398;2023-04-01T21:31:43;10.00;99.90
29237;DHT22;16266;50.866;4.398;2023-04-01T21:37:14;10.10;99.90
29237;DHT22;16266;50.866;4.398;2023-04-01T21:44:48;10.00;99.90
29237;DHT22;16266;50.866;4.398;2023-04-01T21:47:38;9.90;99.90
29237;DHT22;16266;50.866;4.398;2023-04-01T21:50:19;9.90;99.90
29237;DHT22;16266;50.866;4.398;2023-04-01T22:00:42;10.00;99.90
29237;DHT22;16266;50.866;4.398;2023-04-01T22:03:36;10.00;99.90
29237;DHT22;16266;50.866;4.398;2023-04-01T22:06:32;10.00;99.90
29237;DHT22;16266;50.866;4.398;2023-04-01T22:09:56;10.00;99.90
29237;DHT22;16266;50.866;4.398;2023-04-01T22:12:23;10.00;99.90
29237;DHT22;16266;50.866;4.398;2023-04-01T22:15:24;10.00;99.90
29237;DHT22;16266;50.866;4.398;2023-04-01T22:18:08;10.20;99.90
29237;DHT22;16266;50.866;4.398;2023-04-01T22:20:58;10.10;99.90
29237;DHT22;16266;50.866;4.398;2023-04-01T22:23:55;10.10;99.90
29237;DHT22;16266;50.866;4.398;2023-04-01T22:26:38;10.00;99.90
29237;DHT22;16266;50.866;4.398;2023-04-01T22:29:16;9.90;99.90
29237;DHT22;16266;50.866;4.398;2023-04-01T22:31:59;9.90;99.90
29237;DHT22;16266;50.866;4.398;2023-04-01T22:34:46;9.80;99.90
29237;DHT22;16266;50.866;4.398;2023-04-01T22:37:42;9.70;99.90
29237;DHT22;16266;50.866;4.398;2023-04-01T22:40:42;9.60;99.90
29237;DHT22;16266;50.866;4.398;2023-04-01T22:43:19;9.50;99.90
29237;DHT22;16266;50.866;4.398;2023-04-01T22:52:16;9.50;99.90
29237;DHT22;16266;50.866;4.398;2023-04-01T22:54:49;9.50;99.90
29237;DHT22;16266;50.866;4.398;2023-04-01T22:57:50;9.50;99.90
29237;DHT22;16266;50.866;4.398;2023-04-01T23:00:30;9.60;99.90
29237;DHT22;16266;50.866;4.398;2023-04-01T23:05:55;9.60;99.90
29237;DHT22;16266;50.866;4.398;2023-04-01T23:20:04;9.70;99.90
29237;DHT22;16266;50.866;4.398;2023-04-01T23:22:43;9.70;99.90
29237;DHT22;16266;50.866;4.398;2023-04-01T23:27:50;9.40;99.90
29237;DHT22;16266;50.866;4.398;2023-04-01T23:30:52;9.40;99.90
29237;DHT22;16266;50.866;4.398;2023-04-01T23:35:52;9.30;99.90
29237;DHT22;16266;50.866;4.398;2023-04-01T23:38:20;9.30;99.90
29237;DHT22;16266;50.866;4.398;2023-04-01T23:40:49;9.30;99.90
29237;DHT22;16266;50.866;4.398;2023-04-01T23:43:36;9.40;99.90
29237;DHT22;16266;50.866;4.398;2023-04-01T23:46:03;9.30;99.90
29237;DHT22;16266;50.866;4.398;2023-04-01T23:48:40;9.40;99.90
29237;DHT22;16266;50.866;4.398;2023-04-01T23:51:23;9.40;99.90
29237;DHT22;16266;50.866;4.398;2023-04-01T23:54:01;9.30;99.90
29237;DHT22;16266;50.866;4.398;2023-04-01T23:56:48;9.40;99.90
29237;DHT22;16266;50.866;4.398;2023-04-01T23:59:22;9.30;99.90
